createdAt,value
2022-10-25T00:01:27.016Z,100512.56
2022-10-25T00:03:49.553Z,100518.84
2022-10-25T00:06:12.675Z,100518.47
2022-10-25T00:08:35.033Z,100517.22
2022-10-25T00:10:57.467Z,100520.72
2022-10-25T00:13:19.849Z,100521.75
2022-10-25T00:15:43.097Z,100517.72
2022-10-25T00:18:05.572Z,100504.28
2022-10-25T00:20:28.052Z,100513.13
2022-10-25T00:22:50.448Z,100509.16
2022-10-25T00:25:13.248Z,100520.53
2022-10-25T00:27:36.269Z,100517.75
2022-10-25T00:29:58.698Z,100513.34
2022-10-25T00:32:21.057Z,100525.66
2022-10-25T00:34:43.536Z,100516.84
2022-10-25T00:37:06.458Z,100523.09
2022-10-25T00:39:28.985Z,100515.94
2022-10-25T00:41:51.530Z,100519.75
2022-10-25T00:44:38.771Z,100510.16
2022-10-25T00:47:02.270Z,100512.25
2022-10-25T00:49:24.710Z,100521.63
2022-10-25T00:51:50.418Z,100518.72
2022-10-25T00:54:17.529Z,100504.03
2022-10-25T00:56:40.920Z,100510.38
2022-10-25T00:59:04.616Z,100506.13
2022-10-25T01:01:27.193Z,100503.81
2022-10-25T01:03:50.757Z,100506.94
2022-10-25T01:06:27.296Z,100506.81
2022-10-25T01:08:50.417Z,100504.41
2022-10-25T01:11:12.917Z,100501.97
2022-10-25T01:13:36.399Z,100494.09
2022-10-25T01:16:00.880Z,100504.75
2022-10-25T01:19:30.848Z,100509.84
2022-10-25T01:22:10.883Z,100500.38
2022-10-25T01:25:02.878Z,100506.03
2022-10-25T01:28:02.872Z,100492.59
2022-10-25T01:30:26.998Z,100505.56
2022-10-25T01:33:26.186Z,100506.03
2022-10-25T01:39:22.020Z,100502.06
2022-10-25T01:41:59.248Z,100492.47
2022-10-25T01:44:54.439Z,100497.69
2022-10-25T01:47:39.816Z,100504.75
2022-10-25T01:50:23.131Z,100499.88
2022-10-25T01:52:45.506Z,100494.69
2022-10-25T01:55:10.534Z,100499.78
2022-10-25T01:58:13.260Z,100495.41
2022-10-25T02:01:02.501Z,100498.88
2022-10-25T02:03:35.202Z,100501.09
2022-10-25T02:06:38.457Z,100501.44
2022-10-25T02:09:08.977Z,100512.22
2022-10-25T02:11:32.217Z,100507.69
2022-10-25T02:14:09.487Z,100495.31
2022-10-25T02:17:00.723Z,100503.53
2022-10-25T02:19:38.840Z,100497.97
2022-10-25T02:22:02.059Z,100501.75
2022-10-25T02:24:26.593Z,100505.00
2022-10-25T02:29:17.730Z,100501.09
2022-10-25T02:31:40.090Z,100504.19
2022-10-25T02:34:02.428Z,100502.44
2022-10-25T02:36:24.931Z,100498.41
2022-10-25T02:38:47.312Z,100503.63
2022-10-25T02:41:09.656Z,100502.81
2022-10-25T02:43:32.470Z,100505.59
2022-10-25T02:45:54.820Z,100510.34
2022-10-25T02:48:17.166Z,100499.09
2022-10-25T02:50:39.485Z,100499.91
2022-10-25T02:53:01.845Z,100499.91
2022-10-25T02:55:24.179Z,100498.28
2022-10-25T02:57:46.484Z,100504.66
2022-10-25T03:00:10.700Z,100502.94
2022-10-25T03:02:33.077Z,100496.22
2022-10-25T03:04:55.574Z,100492.16
2022-10-25T03:07:17.904Z,100492.88
2022-10-25T03:09:40.261Z,100492.97
2022-10-25T03:12:02.703Z,100493.19
2022-10-25T03:14:25.797Z,100490.78
2022-10-25T03:19:15.646Z,100505.59
2022-10-25T03:21:40.037Z,100495.63
2022-10-25T03:24:04.471Z,100494.50
2022-10-25T03:26:26.860Z,100493.88
2022-10-25T03:28:49.190Z,100492.41
2022-10-25T03:31:14.226Z,100497.16
2022-10-25T03:33:36.781Z,100492.41
2022-10-25T03:35:59.165Z,100486.72
2022-10-25T03:38:21.708Z,100488.34
2022-10-25T03:40:44.159Z,100485.22
2022-10-25T03:43:06.655Z,100497.03
2022-10-25T03:45:29.162Z,100490.31
2022-10-25T03:47:52.743Z,100484.28
2022-10-25T03:50:15.580Z,100493.09
2022-10-25T03:52:37.984Z,100492.16
2022-10-25T03:55:00.322Z,100497.84
2022-10-25T03:57:22.673Z,100490.31
2022-10-25T03:59:45.033Z,100503.50
2022-10-25T04:02:07.499Z,100494.38
2022-10-25T04:04:29.979Z,100497.50
2022-10-25T04:06:52.306Z,100500.63
2022-10-25T04:09:14.881Z,100510.69
2022-10-25T04:11:37.209Z,100507.91
2022-10-25T04:13:59.528Z,100502.59
2022-10-25T04:16:23.280Z,100504.41
2022-10-25T04:18:45.612Z,100489.59
2022-10-25T04:21:07.987Z,100496.66
2022-10-25T04:23:31.425Z,100496.41
2022-10-25T04:25:56.817Z,100505.88
2022-10-25T04:28:19.210Z,100506.13
2022-10-25T04:30:41.757Z,100500.44
2022-10-25T04:33:04.148Z,100497.34
2022-10-25T04:35:26.516Z,100509.94
2022-10-25T04:37:49.488Z,100504.59
2022-10-25T04:40:12.363Z,100502.94
2022-10-25T04:42:34.854Z,100500.53
2022-10-25T04:44:57.184Z,100502.16
2022-10-25T04:47:19.531Z,100508.50
2022-10-25T04:49:41.884Z,100505.72
2022-10-25T04:52:04.359Z,100509.00
2022-10-25T04:54:26.777Z,100501.34
2022-10-25T04:56:49.156Z,100505.97
2022-10-25T04:59:11.630Z,100506.31
2022-10-25T05:01:34.043Z,100507.34
2022-10-25T05:03:56.455Z,100517.97
2022-10-25T05:06:22.310Z,100512.44
2022-10-25T05:08:47.528Z,100511.25
2022-10-25T05:11:11.377Z,100512.44
2022-10-25T05:13:35.372Z,100511.13
2022-10-25T05:15:58.290Z,100505.25
2022-10-25T05:18:20.658Z,100505.25
2022-10-25T05:20:44.615Z,100509.66
2022-10-25T05:23:06.957Z,100508.03
2022-10-25T05:25:29.286Z,100515.97
2022-10-25T05:27:51.634Z,100519.13
2022-10-25T05:30:14.124Z,100526.63
2022-10-25T05:32:36.526Z,100518.53
2022-10-25T05:34:58.892Z,100527.00
2022-10-25T05:37:21.340Z,100531.72
2022-10-25T05:39:43.661Z,100533.00
2022-10-25T05:42:06.477Z,100536.44
2022-10-25T05:44:28.892Z,100526.63
2022-10-25T05:46:51.851Z,100539.69
2022-10-25T05:49:14.227Z,100539.69
2022-10-25T05:51:37.111Z,100535.78
2022-10-25T05:54:01.687Z,100540.19
2022-10-25T05:56:26.578Z,100541.78
2022-10-25T05:58:49.086Z,100549.66
2022-10-25T06:01:13.234Z,100541.78
2022-10-25T06:03:35.791Z,100547.31
2022-10-25T06:06:02.639Z,100546.63
2022-10-25T06:08:25.097Z,100551.06
2022-10-25T06:13:14.693Z,100553.59
2022-10-25T06:15:38.434Z,100554.28
2022-10-25T06:18:00.835Z,100553.00
2022-10-25T06:20:23.210Z,100562.28
2022-10-25T06:22:45.809Z,100567.84
2022-10-25T06:25:09.128Z,100564.38
2022-10-25T06:27:31.515Z,100568.41
2022-10-25T06:29:53.878Z,100563.22
2022-10-25T06:32:16.306Z,100571.66
2022-10-25T06:34:38.708Z,100571.66
2022-10-25T06:37:01.128Z,100572.28
2022-10-25T06:39:23.527Z,100577.47
2022-10-25T06:41:45.967Z,100577.28
2022-10-25T06:44:08.598Z,100576.47
2022-10-25T06:46:33.306Z,100583.16
2022-10-25T06:48:56.756Z,100589.53
2022-10-25T06:51:19.288Z,100583.16
2022-10-25T06:53:41.656Z,100589.84
2022-10-25T06:56:14.907Z,100592.31
2022-10-25T06:58:37.754Z,100587.88
2022-10-25T07:01:05.199Z,100593.94
2022-10-25T07:03:30.792Z,100604.47
2022-10-25T07:05:53.172Z,100603.66
2022-10-25T07:08:15.532Z,100607.59
2022-10-25T07:10:38.063Z,100594.53
2022-10-25T07:13:00.403Z,100599.03
2022-10-25T07:15:25.145Z,100599.03
2022-10-25T07:17:47.767Z,100593.16
2022-10-25T07:20:11.062Z,100591.66
2022-10-25T07:22:33.581Z,100602.06
2022-10-25T07:24:55.951Z,100609.72
2022-10-25T07:27:18.286Z,100608.34
2022-10-25T07:29:40.780Z,100599.81
2022-10-25T07:32:03.233Z,100607.31
2022-10-25T07:34:26.080Z,100600.72
2022-10-25T07:36:48.463Z,100606.06
2022-10-25T07:39:10.871Z,100604.09
2022-10-25T07:41:33.301Z,100590.78
2022-10-25T07:43:55.818Z,100606.88
2022-10-25T07:46:18.563Z,100601.31
2022-10-25T07:48:41.043Z,100611.88
2022-10-25T07:51:08.782Z,100613.03
2022-10-25T07:53:31.594Z,100622.75
2022-10-25T07:55:55.570Z,100610.94
2022-10-25T07:58:19.180Z,100612.72
2022-10-25T08:00:41.630Z,100610.50
2022-10-25T08:03:04.473Z,100620.94
2022-10-25T08:05:27.041Z,100609.31
2022-10-25T08:07:52.740Z,100607.84
2022-10-25T08:10:15.143Z,100616.34
2022-10-25T08:12:37.621Z,100610.78
2022-10-25T08:14:59.981Z,100616.09
2022-10-25T08:17:22.370Z,100615.72
2022-10-25T08:19:50.205Z,100621.19
2022-10-25T08:22:13.516Z,100618.75
2022-10-25T08:24:36.234Z,100625.00
2022-10-25T08:26:58.618Z,100625.59
2022-10-25T08:29:20.991Z,100639.97
2022-10-25T08:31:43.364Z,100646.09
2022-10-25T08:34:05.964Z,100634.84
2022-10-25T08:36:28.830Z,100632.19
2022-10-25T08:38:51.170Z,100650.63
2022-10-25T08:41:21.675Z,100645.06
2022-10-25T08:44:05.599Z,100660.34
2022-10-25T08:46:48.197Z,100646.19
2022-10-25T08:49:48.903Z,100660.09
2022-10-25T08:52:42.441Z,100653.38
2022-10-25T08:55:06.082Z,100654.44
2022-10-25T08:57:32.350Z,100655.59
2022-10-25T09:00:07.400Z,100659.09
2022-10-25T09:02:37.555Z,100663.38
2022-10-25T09:05:00.020Z,100652.94
2022-10-25T09:08:15.958Z,100647.47
2022-10-25T09:11:07.647Z,100653.41
2022-10-25T09:13:43.890Z,100652.47
2022-10-25T09:16:20.932Z,100655.63
2022-10-25T09:18:55.087Z,100659.19
2022-10-25T09:21:52.984Z,100657.47
2022-10-25T09:24:34.214Z,100649.56
2022-10-25T09:27:03.702Z,100655.50
2022-10-25T09:29:36.136Z,100662.31
2022-10-25T09:31:59.919Z,100653.06
2022-10-25T09:34:23.020Z,100663.19
2022-10-25T09:36:47.892Z,100666.53
2022-10-25T09:39:53.630Z,100661.97
2022-10-25T09:42:33.126Z,100658.44
2022-10-25T09:45:02.432Z,100662.97
2022-10-25T09:47:40.756Z,100667.59
2022-10-25T09:50:04.140Z,100678.81
2022-10-25T09:52:31.014Z,100667.53
2022-10-25T09:55:14.387Z,100675.63
2022-10-25T09:57:36.743Z,100671.84
2022-10-25T09:59:59.239Z,100671.63
2022-10-25T10:02:25.841Z,100665.16
2022-10-25T10:04:48.228Z,100667.44
2022-10-25T10:07:35.522Z,100676.94
2022-10-25T10:10:00.358Z,100667.78
2022-10-25T10:12:55.778Z,100659.69
2022-10-25T10:15:25.262Z,100671.84
2022-10-25T10:17:47.953Z,100680.09
2022-10-25T10:20:15.808Z,100667.63
2022-10-25T10:22:53.311Z,100667.53
2022-10-25T10:25:24.615Z,100663.72
2022-10-25T10:27:48.064Z,100676.03
2022-10-25T10:30:24.808Z,100676.13
2022-10-25T10:32:47.163Z,100676.75
2022-10-25T10:35:26.654Z,100673.31
2022-10-25T10:37:49.283Z,100666.91
2022-10-25T10:40:17.968Z,100685.16
2022-10-25T10:42:43.235Z,100671.72
2022-10-25T10:45:08.743Z,100678.53
2022-10-25T10:47:35.027Z,100670.78
2022-10-25T10:49:57.441Z,100680.41
2022-10-25T10:52:30.827Z,100667.28
2022-10-25T10:54:53.243Z,100671.66
2022-10-25T10:57:28.946Z,100675.72
2022-10-25T10:59:56.153Z,100678.72
2022-10-25T11:02:42.131Z,100680.34
2022-10-25T11:05:25.289Z,100681.78
2022-10-25T11:08:01.255Z,100689.91
2022-10-25T11:10:34.775Z,100679.63
2022-10-25T11:13:11.438Z,100674.50
2022-10-25T11:16:27.344Z,100674.72
2022-10-25T11:19:11.201Z,100676.41
2022-10-25T11:21:36.538Z,100683.63
2022-10-25T11:24:35.180Z,100673.47
2022-10-25T11:27:38.548Z,100693.53
2022-10-25T11:30:48.193Z,100678.06
2022-10-25T11:33:25.425Z,100680.56
2022-10-25T11:36:13.119Z,100686.09
2022-10-25T11:38:49.194Z,100687.88
2022-10-25T11:41:23.325Z,100685.38
2022-10-25T11:44:15.225Z,100683.28
2022-10-25T11:46:58.861Z,100681.44
2022-10-25T11:50:03.491Z,100684.28
2022-10-25T11:52:47.896Z,100691.81
2022-10-25T11:55:47.530Z,100690.63
2022-10-25T11:59:05.957Z,100695.31
2022-10-25T12:02:08.258Z,100681.28
2022-10-25T12:04:54.767Z,100688.13
2022-10-25T12:07:33.265Z,100695.66
2022-10-25T12:10:01.764Z,100700.47
2022-10-25T12:12:37.393Z,100699.84
2022-10-25T12:15:00.267Z,100694.47
2022-10-25T12:17:31.620Z,100699.72
2022-10-25T12:19:57.087Z,100687.47
2022-10-25T12:22:24.292Z,100690.88
2022-10-25T12:25:00.100Z,100697.06
2022-10-25T12:27:22.628Z,100696.53
2022-10-25T12:29:49.745Z,100698.16
2022-10-25T12:32:26.475Z,100691.59
2022-10-25T12:34:55.812Z,100706.69
2022-10-25T12:37:43.277Z,100691.63
2022-10-25T12:40:15.983Z,100701.34
2022-10-25T12:42:53.622Z,100708.53
2022-10-25T12:45:38.931Z,100691.34
2022-10-25T12:48:38.008Z,100702.22
2022-10-25T12:51:28.365Z,100699.44
2022-10-25T12:54:06.093Z,100691.34
2022-10-25T12:57:24.853Z,100706.13
2022-10-25T12:59:58.844Z,100695.59
2022-10-25T13:02:44.354Z,100717.28
2022-10-25T13:05:31.626Z,100712.53
2022-10-25T13:07:57.378Z,100707.66
2022-10-25T13:10:22.366Z,100719.63
2022-10-25T13:13:22.391Z,100716.53
2022-10-25T13:15:49.150Z,100725.59
2022-10-25T13:18:46.966Z,100720.03
2022-10-25T13:22:11.428Z,100724.94
2022-10-25T13:24:43.073Z,100747.66
2022-10-25T13:27:21.545Z,100739.47
2022-10-25T13:29:46.861Z,100731.34
2022-10-25T13:32:17.815Z,100738.91
2022-10-25T13:34:40.180Z,100740.06
2022-10-25T13:37:04.040Z,100738.19
2022-10-25T13:39:42.993Z,100737.38
2022-10-25T13:42:35.646Z,100737.44
2022-10-25T13:45:03.943Z,100728.69
2022-10-25T13:47:34.802Z,100731.19
2022-10-25T13:49:57.150Z,100735.44
2022-10-25T13:52:32.408Z,100729.56
2022-10-25T13:54:55.973Z,100728.81
2022-10-25T13:57:53.388Z,100734.50
2022-10-25T14:00:27.397Z,100742.25
2022-10-25T14:03:08.651Z,100738.72
2022-10-25T14:05:55.899Z,100748.41
2022-10-25T14:08:38.599Z,100738.41
2022-10-25T14:11:15.743Z,100740.47
2022-10-25T14:14:00.377Z,100757.50
2022-10-25T14:16:34.809Z,100745.28
2022-10-25T14:19:12.540Z,100748.06
2022-10-25T14:21:34.899Z,100756.00
2022-10-25T14:23:57.224Z,100734.00
2022-10-25T14:26:21.395Z,100742.56
2022-10-25T14:28:43.771Z,100747.59
2022-10-25T14:31:06.494Z,100762.25
2022-10-25T14:33:30.390Z,100756.34
2022-10-25T14:36:06.349Z,100756.91
2022-10-25T14:38:28.822Z,100753.56
2022-10-25T14:40:56.898Z,100756.13
2022-10-25T14:43:33.070Z,100765.66
2022-10-25T14:46:15.005Z,100757.94
2022-10-25T14:48:37.359Z,100757.47
2022-10-25T14:51:21.987Z,100754.53
2022-10-25T14:54:12.517Z,100766.84
2022-10-25T14:56:41.318Z,100753.75
2022-10-25T14:59:05.165Z,100748.75
2022-10-25T15:01:27.646Z,100755.84
2022-10-25T15:03:53.381Z,100762.81
2022-10-25T15:06:15.802Z,100765.47
2022-10-25T15:08:39.540Z,100769.09
2022-10-25T15:11:04.287Z,100768.16
2022-10-25T15:13:49.266Z,100774.66
2022-10-25T15:16:38.635Z,100786.13
2022-10-25T15:19:10.150Z,100776.28
2022-10-25T15:22:10.663Z,100772.91
2022-10-25T15:24:46.274Z,100766.19
2022-10-25T15:27:31.585Z,100783.69
2022-10-25T15:29:53.998Z,100768.16
2022-10-25T15:32:21.703Z,100770.00
2022-10-25T15:34:50.078Z,100781.50
2022-10-25T15:37:13.821Z,100776.38
2022-10-25T15:39:36.238Z,100770.69
2022-10-25T15:41:58.661Z,100776.50
2022-10-25T15:44:21.383Z,100773.34
2022-10-25T15:46:43.735Z,100778.47
2022-10-25T15:49:08.356Z,100778.34
2022-10-25T15:51:32.710Z,100784.72
2022-10-25T15:53:55.165Z,100785.84
2022-10-25T15:56:19.600Z,100793.38
2022-10-25T15:58:41.983Z,100790.97
2022-10-25T16:01:04.392Z,100787.03
2022-10-25T16:03:26.864Z,100794.06
2022-10-25T16:05:49.473Z,100797.56
2022-10-25T16:08:14.168Z,100793.16
2022-10-25T16:10:36.594Z,100792.69
2022-10-25T16:13:09.298Z,100799.28
2022-10-25T16:15:31.693Z,100803.56
2022-10-25T16:17:54.233Z,100800.66
2022-10-25T16:20:28.505Z,100807.84
2022-10-25T16:22:51.359Z,100810.03
2022-10-25T16:25:14.032Z,100803.19
2022-10-25T16:27:36.383Z,100811.53
2022-10-25T16:29:58.724Z,100810.84
2022-10-25T16:32:21.071Z,100820.31
2022-10-25T16:34:46.138Z,100824.03
2022-10-25T16:37:11.660Z,100817.50
2022-10-25T16:39:34.436Z,100808.34
2022-10-25T16:41:58.446Z,100818.06
2022-10-25T16:44:20.824Z,100818.41
2022-10-25T16:46:43.487Z,100821.03
2022-10-25T16:49:05.900Z,100823.81
2022-10-25T16:51:28.890Z,100817.59
2022-10-25T16:53:51.325Z,100828.88
2022-10-25T16:56:13.814Z,100826.09
2022-10-25T16:58:36.179Z,100827.97
2022-10-25T17:00:58.993Z,100826.31
2022-10-25T17:03:21.413Z,100836.50
2022-10-25T17:05:43.844Z,100837.97
2022-10-25T17:08:06.277Z,100835.75
2022-10-25T17:10:28.756Z,100833.66
2022-10-25T17:12:54.175Z,100835.00
2022-10-25T17:15:16.833Z,100835.91
2022-10-25T17:17:41.074Z,100841.19
2022-10-25T17:20:03.990Z,100841.50
2022-10-25T17:22:28.405Z,100842.31
2022-10-25T17:24:50.840Z,100841.38
2022-10-25T17:27:13.239Z,100844.84
2022-10-25T17:29:35.589Z,100850.84
2022-10-25T17:32:00.615Z,100854.91
2022-10-25T17:34:23.226Z,100851.31
2022-10-25T17:36:45.678Z,100857.38
2022-10-25T17:39:08.467Z,100848.41
2022-10-25T17:41:30.848Z,100856.41
2022-10-25T17:43:56.086Z,100867.06
2022-10-25T17:46:21.293Z,100863.09
2022-10-25T17:48:43.771Z,100869.84
2022-10-25T17:51:08.367Z,100869.69
2022-10-25T17:53:30.807Z,100872.31
2022-10-25T17:55:53.186Z,100864.66
2022-10-25T17:58:15.655Z,100862.69
2022-10-25T18:00:38.111Z,100874.81
2022-10-25T18:03:00.784Z,100866.94
2022-10-25T18:05:23.226Z,100871.34
2022-10-25T18:07:45.749Z,100875.75
2022-10-25T18:10:08.905Z,100876.59
2022-10-25T18:12:31.694Z,100876.91
2022-10-25T18:14:55.568Z,100876.91
2022-10-25T18:17:18.235Z,100883.75
2022-10-25T18:19:40.738Z,100885.69
2022-10-25T18:22:04.282Z,100890.78
2022-10-25T18:24:29.198Z,100888.00
2022-10-25T18:26:51.643Z,100888.47
2022-10-25T18:29:14.028Z,100886.38
2022-10-25T18:31:36.569Z,100888.47
2022-10-25T18:33:59.245Z,100880.81
2022-10-25T18:36:21.939Z,100880.56
2022-10-25T18:38:48.426Z,100893.78
2022-10-25T18:41:15.061Z,100899.84
2022-10-25T18:43:37.531Z,100898.34
2022-10-25T18:45:59.972Z,100892.34
2022-10-25T18:48:22.735Z,100911.88
2022-10-25T18:50:45.118Z,100903.44
2022-10-25T18:53:07.679Z,100899.84
2022-10-25T18:55:30.147Z,100901.34
2022-10-25T18:57:54.657Z,100913.06
2022-10-25T19:00:17.836Z,100911.94
2022-10-25T19:02:40.327Z,100913.75
2022-10-25T19:05:03.011Z,100914.91
2022-10-25T19:07:25.759Z,100913.63
2022-10-25T19:09:48.356Z,100917.06
2022-10-25T19:12:10.688Z,100909.53
2022-10-25T19:14:33.115Z,100917.84
2022-10-25T19:16:55.454Z,100919.69
2022-10-25T19:19:17.784Z,100928.31
2022-10-25T19:21:40.250Z,100925.91
2022-10-25T19:24:02.678Z,100940.91
2022-10-25T19:26:25.133Z,100931.44
2022-10-25T19:28:47.829Z,100929.81
2022-10-25T19:31:13.380Z,100944.16
2022-10-25T19:33:36.025Z,100936.66
2022-10-25T19:36:09.491Z,100950.53
2022-10-25T19:38:31.912Z,100951.19
2022-10-25T19:40:54.311Z,100941.56
2022-10-25T19:43:16.684Z,100933.41
2022-10-25T19:45:42.847Z,100936.19
2022-10-25T19:48:05.644Z,100941.22
2022-10-25T19:50:29.022Z,100944.81
2022-10-25T19:52:51.911Z,100943.53
2022-10-25T19:55:14.395Z,100941.22
2022-10-25T19:57:36.833Z,100945.16
2022-10-25T19:59:59.180Z,100947.59
2022-10-25T20:02:21.726Z,100945.31
2022-10-25T20:04:44.211Z,100941.38
2022-10-25T20:07:06.603Z,100948.56
2022-10-25T20:09:28.953Z,100948.09
2022-10-25T20:11:51.327Z,100943.50
2022-10-25T20:14:13.649Z,100949.88
2022-10-25T20:16:36.228Z,100947.91
2022-10-25T20:19:01.539Z,100959.00
2022-10-25T20:21:25.938Z,100942.69
2022-10-25T20:23:51.744Z,100949.19
2022-10-25T20:26:28.855Z,100951.16
2022-10-25T20:28:56.056Z,100948.88
2022-10-25T20:31:19.926Z,100964.25
2022-10-25T20:33:42.523Z,100965.69
2022-10-25T20:36:09.241Z,100960.66
2022-10-25T20:38:32.023Z,100960.19
2022-10-25T20:40:54.390Z,100954.97
2022-10-25T20:43:16.886Z,100952.03
2022-10-25T20:45:41.479Z,100961.16
2022-10-25T20:48:04.101Z,100962.63
2022-10-25T20:50:27.566Z,100956.94
2022-10-25T20:53:09.269Z,100956.31
2022-10-25T20:55:32.464Z,100962.50
2022-10-25T20:57:54.936Z,100963.50
2022-10-25T21:00:20.435Z,100965.97
2022-10-25T21:02:43.910Z,100965.16
2022-10-25T21:05:07.011Z,100968.38
2022-10-25T21:07:32.927Z,100972.00
2022-10-25T21:09:55.340Z,100984.38
2022-10-25T21:12:17.713Z,100978.69
2022-10-25T21:17:07.546Z,100977.53
2022-10-25T21:19:29.945Z,100983.56
2022-10-25T21:21:52.354Z,100978.34
2022-10-25T21:24:15.040Z,100978.34
2022-10-25T21:26:37.454Z,100981.44
2022-10-25T21:28:59.921Z,100981.63
2022-10-25T21:31:22.360Z,100992.69
2022-10-25T21:33:50.156Z,101003.13
2022-10-25T21:36:15.053Z,100993.19
2022-10-25T21:38:37.553Z,100981.63
2022-10-25T21:41:11.724Z,100990.25
2022-10-25T21:43:34.237Z,100988.78
2022-10-25T21:45:59.023Z,100995.78
2022-10-25T21:48:21.469Z,100988.59
2022-10-25T21:50:43.934Z,100989.44
2022-10-25T21:53:06.284Z,100980.94
2022-10-25T21:55:28.636Z,100987.31
2022-10-25T21:57:54.156Z,100982.88
2022-10-25T22:00:17.245Z,100981.94
2022-10-25T22:02:39.844Z,100991.38
2022-10-25T22:05:02.510Z,100989.41
2022-10-25T22:07:24.936Z,100988.25
2022-10-25T22:09:47.326Z,100986.13
2022-10-25T22:12:09.775Z,100990.88
2022-10-25T22:14:32.419Z,100996.91
2022-10-25T22:16:54.845Z,100999.50
2022-10-25T22:19:19.200Z,100994.44
2022-10-25T22:21:42.032Z,100997.38
2022-10-25T22:24:05.752Z,101004.38
2022-10-25T22:26:28.179Z,101006.81
2022-10-25T22:28:55.078Z,101005.81
2022-10-25T22:31:17.876Z,101006.16
2022-10-25T22:33:40.555Z,101005.50
2022-10-25T22:36:11.217Z,101001.56
2022-10-25T22:38:34.187Z,101005.81
2022-10-25T22:41:02.099Z,101002.84
2022-10-25T22:43:24.619Z,101008.22
2022-10-25T22:45:46.987Z,101014.41
2022-10-25T22:48:09.505Z,101009.69
2022-10-25T22:50:32.351Z,101013.44
2022-10-25T22:52:54.839Z,101010.97
2022-10-25T22:55:17.225Z,101015.31
2022-10-25T22:57:42.190Z,101017.78
2022-10-25T23:00:05.392Z,101014.53
2022-10-25T23:02:27.851Z,101015.31
2022-10-25T23:04:50.229Z,101012.72
2022-10-25T23:07:12.667Z,101015.00
2022-10-25T23:09:35.072Z,101017.25
2022-10-25T23:11:57.419Z,101017.75
2022-10-25T23:14:19.866Z,101026.38
2022-10-25T23:16:42.320Z,101033.03
2022-10-25T23:19:04.762Z,101030.25
2022-10-25T23:21:30.218Z,101026.19
2022-10-25T23:23:53.368Z,101022.59
2022-10-25T23:26:30.140Z,101023.28
2022-10-25T23:28:52.719Z,101020.84
2022-10-25T23:31:15.617Z,101019.81
2022-10-25T23:33:38.516Z,101019.19
2022-10-25T23:36:12.512Z,101021.16
2022-10-25T23:38:35.570Z,101016.56
2022-10-25T23:40:58.013Z,101019.97
2022-10-25T23:43:20.580Z,101010.56
2022-10-25T23:45:43.115Z,101017.84
2022-10-25T23:48:05.624Z,101012.66
2022-10-25T23:50:28.001Z,101019.63
2022-10-25T23:52:50.887Z,101018.94
2022-10-25T23:55:15.859Z,101028.88
2022-10-25T23:57:38.270Z,101028.88
